sensor_id;sensor_type;location;lat;lon;timestamp;P1;durP1;ratioP1;P2;durP2;ratioP2
4278;SDS011;2153;47.744;10.580;2022-09-24T00:02:23;15.90;;;4.73;;
4278;SDS011;2153;47.744;10.580;2022-09-24T00:04:50;15.00;;;4.50;;
4278;SDS011;2153;47.744;10.580;2022-09-24T00:07:18;21.57;;;5.97;;
4278;SDS011;2153;47.744;10.580;2022-09-24T00:09:45;16.43;;;5.97;;
4278;SDS011;2153;47.744;10.580;2022-09-24T00:12:12;17.03;;;5.33;;
4278;SDS011;2153;47.744;10.580;2022-09-24T00:14:39;16.97;;;5.20;;
4278;SDS011;2153;47.744;10.580;2022-09-24T00:17:05;15.10;;;5.40;;
4278;SDS011;2153;47.744;10.580;2022-09-24T00:19:32;13.50;;;3.83;;
4278;SDS011;2153;47.744;10.580;2022-09-24T00:21:59;14.73;;;4.40;;
4278;SDS011;2153;47.744;10.580;2022-09-24T00:24:27;16.40;;;4.90;;
4278;SDS011;2153;47.744;10.580;2022-09-24T00:27:11;14.90;;;4.60;;
4278;SDS011;2153;47.744;10.580;2022-09-24T00:29:38;18.30;;;4.73;;
4278;SDS011;2153;47.744;10.580;2022-09-24T00:32:04;17.43;;;4.77;;
4278;SDS011;2153;47.744;10.580;2022-09-24T00:34:31;13.70;;;3.70;;
4278;SDS011;2153;47.744;10.580;2022-09-24T00:36:58;14.37;;;3.77;;
4278;SDS011;2153;47.744;10.580;2022-09-24T00:39:26;16.57;;;4.33;;
4278;SDS011;2153;47.744;10.580;2022-09-24T00:41:53;13.83;;;3.80;;
4278;SDS011;2153;47.744;10.580;2022-09-24T00:44:42;15.57;;;4.17;;
4278;SDS011;2153;47.744;10.580;2022-09-24T00:47:21;16.07;;;3.93;;
4278;SDS011;2153;47.744;10.580;2022-09-24T00:49:57;16.83;;;4.87;;
4278;SDS011;2153;47.744;10.580;2022-09-24T00:52:30;17.30;;;3.70;;
4278;SDS011;2153;47.744;10.580;2022-09-24T00:54:58;14.77;;;3.97;;
4278;SDS011;2153;47.744;10.580;2022-09-24T00:57:25;17.20;;;4.30;;
4278;SDS011;2153;47.744;10.580;2022-09-24T00:59:52;15.07;;;3.77;;
4278;SDS011;2153;47.744;10.580;2022-09-24T01:02:20;13.67;;;3.83;;
4278;SDS011;2153;47.744;10.580;2022-09-24T01:04:48;15.30;;;4.60;;
4278;SDS011;2153;47.744;10.580;2022-09-24T01:07:15;16.03;;;4.70;;
4278;SDS011;2153;47.744;10.580;2022-09-24T01:09:41;15.23;;;4.17;;
4278;SDS011;2153;47.744;10.580;2022-09-24T01:12:11;16.80;;;3.83;;
4278;SDS011;2153;47.744;10.580;2022-09-24T01:14:49;20.00;;;4.37;;
4278;SDS011;2153;47.744;10.580;2022-09-24T01:17:31;14.17;;;4.20;;
4278;SDS011;2153;47.744;10.580;2022-09-24T01:20:12;14.00;;;3.50;;
4278;SDS011;2153;47.744;10.580;2022-09-24T01:23:04;16.10;;;3.90;;
4278;SDS011;2153;47.744;10.580;2022-09-24T01:25:43;15.40;;;4.27;;
4278;SDS011;2153;47.744;10.580;2022-09-24T01:28:21;15.10;;;3.83;;
4278;SDS011;2153;47.744;10.580;2022-09-24T01:31:02;14.00;;;3.57;;
4278;SDS011;2153;47.744;10.580;2022-09-24T01:33:33;14.07;;;4.20;;
4278;SDS011;2153;47.744;10.580;2022-09-24T01:36:03;14.73;;;4.50;;
4278;SDS011;2153;47.744;10.580;2022-09-24T01:38:33;14.40;;;4.00;;
4278;SDS011;2153;47.744;10.580;2022-09-24T01:41:05;16.20;;;3.77;;
4278;SDS011;2153;47.744;10.580;2022-09-24T01:43:34;15.37;;;3.70;;
4278;SDS011;2153;47.744;10.580;2022-09-24T01:46:04;15.97;;;3.90;;
4278;SDS011;2153;47.744;10.580;2022-09-24T01:48:32;13.93;;;3.50;;
4278;SDS011;2153;47.744;10.580;2022-09-24T01:51:02;14.17;;;3.40;;
4278;SDS011;2153;47.744;10.580;2022-09-24T01:53:34;13.90;;;3.60;;
4278;SDS011;2153;47.744;10.580;2022-09-24T01:56:07;14.20;;;3.87;;
4278;SDS011;2153;47.744;10.580;2022-09-24T01:58:39;19.70;;;3.87;;
4278;SDS011;2153;47.744;10.580;2022-09-24T02:01:13;16.40;;;4.03;;
4278;SDS011;2153;47.744;10.580;2022-09-24T02:03:44;13.60;;;3.60;;
4278;SDS011;2153;47.744;10.580;2022-09-24T02:06:15;16.23;;;3.97;;
4278;SDS011;2153;47.744;10.580;2022-09-24T02:08:46;15.30;;;4.10;;
4278;SDS011;2153;47.744;10.580;2022-09-24T02:11:14;15.90;;;3.93;;
4278;SDS011;2153;47.744;10.580;2022-09-24T02:13:42;15.50;;;4.03;;
4278;SDS011;2153;47.744;10.580;2022-09-24T02:16:14;16.30;;;4.13;;
4278;SDS011;2153;47.744;10.580;2022-09-24T02:18:47;13.33;;;3.77;;
4278;SDS011;2153;47.744;10.580;2022-09-24T02:21:16;18.13;;;4.70;;
4278;SDS011;2153;47.744;10.580;2022-09-24T02:23:46;15.70;;;4.30;;
4278;SDS011;2153;47.744;10.580;2022-09-24T02:26:16;14.60;;;4.13;;
4278;SDS011;2153;47.744;10.580;2022-09-24T02:28:43;14.73;;;4.77;;
4278;SDS011;2153;47.744;10.580;2022-09-24T02:31:10;14.40;;;3.80;;
4278;SDS011;2153;47.744;10.580;2022-09-24T02:33:43;16.70;;;4.53;;
4278;SDS011;2153;47.744;10.580;2022-09-24T02:36:31;14.10;;;4.00;;
4278;SDS011;2153;47.744;10.580;2022-09-24T02:38:58;15.10;;;3.50;;
4278;SDS011;2153;47.744;10.580;2022-09-24T02:41:25;16.40;;;4.13;;
4278;SDS011;2153;47.744;10.580;2022-09-24T02:43:53;14.37;;;3.90;;
4278;SDS011;2153;47.744;10.580;2022-09-24T02:46:20;15.20;;;4.37;;
4278;SDS011;2153;47.744;10.580;2022-09-24T02:48:48;15.60;;;3.87;;
4278;SDS011;2153;47.744;10.580;2022-09-24T02:51:15;13.70;;;3.70;;
4278;SDS011;2153;47.744;10.580;2022-09-24T02:53:41;16.27;;;4.13;;
4278;SDS011;2153;47.744;10.580;2022-09-24T02:56:08;16.47;;;3.80;;
4278;SDS011;2153;47.744;10.580;2022-09-24T02:58:35;13.97;;;3.50;;
4278;SDS011;2153;47.744;10.580;2022-09-24T03:01:02;14.10;;;4.10;;
4278;SDS011;2153;47.744;10.580;2022-09-24T03:03:29;14.93;;;3.70;;
4278;SDS011;2153;47.744;10.580;2022-09-24T03:05:57;14.80;;;3.70;;
4278;SDS011;2153;47.744;10.580;2022-09-24T03:08:24;14.00;;;3.80;;
4278;SDS011;2153;47.744;10.580;2022-09-24T03:10:51;15.30;;;4.23;;
4278;SDS011;2153;47.744;10.580;2022-09-24T03:13:20;13.83;;;4.20;;
4278;SDS011;2153;47.744;10.580;2022-09-24T03:15:47;16.10;;;3.93;;
4278;SDS011;2153;47.744;10.580;2022-09-24T03:18:13;16.17;;;4.30;;
4278;SDS011;2153;47.744;10.580;2022-09-24T03:20:40;17.97;;;3.80;;
4278;SDS011;2153;47.744;10.580;2022-09-24T03:23:08;15.60;;;4.17;;
4278;SDS011;2153;47.744;10.580;2022-09-24T03:25:35;15.10;;;4.40;;
4278;SDS011;2153;47.744;10.580;2022-09-24T03:28:01;14.17;;;4.00;;
4278;SDS011;2153;47.744;10.580;2022-09-24T03:30:28;20.47;;;4.07;;
4278;SDS011;2153;47.744;10.580;2022-09-24T03:33:12;14.27;;;3.70;;
4278;SDS011;2153;47.744;10.580;2022-09-24T03:35:40;15.07;;;4.07;;
4278;SDS011;2153;47.744;10.580;2022-09-24T03:38:08;16.37;;;4.40;;
4278;SDS011;2153;47.744;10.580;2022-09-24T03:40:35;14.97;;;4.30;;
4278;SDS011;2153;47.744;10.580;2022-09-24T03:43:02;18.17;;;5.30;;
4278;SDS011;2153;47.744;10.580;2022-09-24T03:45:28;14.40;;;3.87;;
4278;SDS011;2153;47.744;10.580;2022-09-24T03:47:55;16.77;;;3.77;;
4278;SDS011;2153;47.744;10.580;2022-09-24T03:50:22;14.13;;;4.03;;
4278;SDS011;2153;47.744;10.580;2022-09-24T03:52:49;13.50;;;3.50;;
4278;SDS011;2153;47.744;10.580;2022-09-24T03:55:17;14.40;;;3.70;;
4278;SDS011;2153;47.744;10.580;2022-09-24T03:57:44;18.23;;;4.30;;
4278;SDS011;2153;47.744;10.580;2022-09-24T04:00:11;22.23;;;4.30;;
4278;SDS011;2153;47.744;10.580;2022-09-24T04:02:38;15.20;;;3.63;;
4278;SDS011;2153;47.744;10.580;2022-09-24T04:05:05;15.80;;;3.83;;
4278;SDS011;2153;47.744;10.580;2022-09-24T04:07:32;14.60;;;3.87;;
4278;SDS011;2153;47.744;10.580;2022-09-24T04:09:59;14.87;;;4.50;;
4278;SDS011;2153;47.744;10.580;2022-09-24T04:12:27;19.97;;;6.50;;
4278;SDS011;2153;47.744;10.580;2022-09-24T04:14:55;17.53;;;6.07;;
4278;SDS011;2153;47.744;10.580;2022-09-24T04:17:21;19.60;;;6.10;;
4278;SDS011;2153;47.744;10.580;2022-09-24T04:19:48;18.10;;;5.23;;
4278;SDS011;2153;47.744;10.580;2022-09-24T04:22:17;15.47;;;4.93;;
4278;SDS011;2153;47.744;10.580;2022-09-24T04:24:44;14.70;;;4.40;;
4278;SDS011;2153;47.744;10.580;2022-09-24T04:27:12;16.53;;;5.10;;
4278;SDS011;2153;47.744;10.580;2022-09-24T04:29:40;15.80;;;5.40;;
4278;SDS011;2153;47.744;10.580;2022-09-24T04:32:06;21.30;;;5.80;;
4278;SDS011;2153;47.744;10.580;2022-09-24T04:34:33;17.83;;;5.30;;
4278;SDS011;2153;47.744;10.580;2022-09-24T04:37:00;18.60;;;4.83;;
4278;SDS011;2153;47.744;10.580;2022-09-24T04:39:26;16.53;;;4.83;;
4278;SDS011;2153;47.744;10.580;2022-09-24T04:41:53;19.40;;;5.17;;
4278;SDS011;2153;47.744;10.580;2022-09-24T04:44:20;16.70;;;4.33;;
4278;SDS011;2153;47.744;10.580;2022-09-24T04:46:49;15.00;;;3.90;;
4278;SDS011;2153;47.744;10.580;2022-09-24T04:49:16;13.33;;;3.43;;
4278;SDS011;2153;47.744;10.580;2022-09-24T04:51:42;15.50;;;3.87;;
4278;SDS011;2153;47.744;10.580;2022-09-24T04:54:09;15.90;;;4.27;;
4278;SDS011;2153;47.744;10.580;2022-09-24T04:56:36;17.63;;;3.90;;
4278;SDS011;2153;47.744;10.580;2022-09-24T04:59:03;24.60;;;4.60;;
4278;SDS011;2153;47.744;10.580;2022-09-24T05:01:29;22.53;;;4.40;;
4278;SDS011;2153;47.744;10.580;2022-09-24T05:03:57;16.53;;;3.90;;
4278;SDS011;2153;47.744;10.580;2022-09-24T05:06:24;14.60;;;3.97;;
4278;SDS011;2153;47.744;10.580;2022-09-24T05:08:51;17.83;;;3.50;;
4278;SDS011;2153;47.744;10.580;2022-09-24T05:11:17;14.83;;;3.93;;
4278;SDS011;2153;47.744;10.580;2022-09-24T05:13:44;14.80;;;4.67;;
4278;SDS011;2153;47.744;10.580;2022-09-24T05:16:11;14.33;;;3.77;;
4278;SDS011;2153;47.744;10.580;2022-09-24T05:18:37;16.77;;;4.23;;
4278;SDS011;2153;47.744;10.580;2022-09-24T05:21:06;15.20;;;4.40;;
4278;SDS011;2153;47.744;10.580;2022-09-24T05:23:33;19.10;;;4.47;;
4278;SDS011;2153;47.744;10.580;2022-09-24T05:26:00;15.60;;;4.47;;
4278;SDS011;2153;47.744;10.580;2022-09-24T05:28:44;15.67;;;4.00;;
4278;SDS011;2153;47.744;10.580;2022-09-24T05:31:11;17.00;;;4.80;;
4278;SDS011;2153;47.744;10.580;2022-09-24T05:33:37;16.13;;;4.80;;
4278;SDS011;2153;47.744;10.580;2022-09-24T05:36:04;16.40;;;5.23;;
4278;SDS011;2153;47.744;10.580;2022-09-24T05:38:32;15.67;;;4.60;;
4278;SDS011;2153;47.744;10.580;2022-09-24T05:40:59;17.67;;;5.17;;
4278;SDS011;2153;47.744;10.580;2022-09-24T05:43:26;23.87;;;5.20;;
4278;SDS011;2153;47.744;10.580;2022-09-24T05:45:53;15.30;;;4.83;;
4278;SDS011;2153;47.744;10.580;2022-09-24T05:48:22;20.03;;;4.90;;
4278;SDS011;2153;47.744;10.580;2022-09-24T05:50:49;19.07;;;5.37;;
4278;SDS011;2153;47.744;10.580;2022-09-24T05:53:20;17.23;;;6.00;;
4278;SDS011;2153;47.744;10.580;2022-09-24T05:55:47;16.57;;;6.00;;
4278;SDS011;2153;47.744;10.580;2022-09-24T05:58:14;16.00;;;5.87;;
4278;SDS011;2153;47.744;10.580;2022-09-24T06:00:42;30.93;;;12.23;;
4278;SDS011;2153;47.744;10.580;2022-09-24T06:03:10;17.33;;;6.90;;
4278;SDS011;2153;47.744;10.580;2022-09-24T06:05:41;17.30;;;5.47;;
4278;SDS011;2153;47.744;10.580;2022-09-24T06:08:09;14.93;;;5.03;;
4278;SDS011;2153;47.744;10.580;2022-09-24T06:10:37;18.00;;;5.00;;
4278;SDS011;2153;47.744;10.580;2022-09-24T06:13:03;15.60;;;4.87;;
4278;SDS011;2153;47.744;10.580;2022-09-24T06:15:30;15.30;;;4.50;;
4278;SDS011;2153;47.744;10.580;2022-09-24T06:17:57;16.80;;;5.20;;
4278;SDS011;2153;47.744;10.580;2022-09-24T06:20:23;16.90;;;5.40;;
4278;SDS011;2153;47.744;10.580;2022-09-24T06:22:53;20.70;;;5.20;;
4278;SDS011;2153;47.744;10.580;2022-09-24T06:25:21;33.43;;;7.70;;
4278;SDS011;2153;47.744;10.580;2022-09-24T06:27:53;15.97;;;5.07;;
4278;SDS011;2153;47.744;10.580;2022-09-24T06:30:24;15.90;;;5.70;;
4278;SDS011;2153;47.744;10.580;2022-09-24T06:32:51;15.50;;;5.27;;
4278;SDS011;2153;47.744;10.580;2022-09-24T06:35:18;18.20;;;6.40;;
4278;SDS011;2153;47.744;10.580;2022-09-24T06:37:45;19.80;;;6.20;;
4278;SDS011;2153;47.744;10.580;2022-09-24T06:40:13;17.87;;;5.83;;
4278;SDS011;2153;47.744;10.580;2022-09-24T06:42:40;17.90;;;6.47;;
4278;SDS011;2153;47.744;10.580;2022-09-24T06:45:08;21.23;;;6.90;;
4278;SDS011;2153;47.744;10.580;2022-09-24T06:47:37;18.27;;;7.27;;
4278;SDS011;2153;47.744;10.580;2022-09-24T06:50:04;27.47;;;10.40;;
4278;SDS011;2153;47.744;10.580;2022-09-24T06:52:31;21.70;;;8.37;;
4278;SDS011;2153;47.744;10.580;2022-09-24T06:54:58;16.27;;;5.40;;
4278;SDS011;2153;47.744;10.580;2022-09-24T06:57:25;15.80;;;5.00;;
4278;SDS011;2153;47.744;10.580;2022-09-24T06:59:51;17.00;;;4.50;;
4278;SDS011;2153;47.744;10.580;2022-09-24T07:02:19;18.27;;;7.47;;
4278;SDS011;2153;47.744;10.580;2022-09-24T07:04:46;18.90;;;6.13;;
4278;SDS011;2153;47.744;10.580;2022-09-24T07:07:13;17.30;;;5.70;;
4278;SDS011;2153;47.744;10.580;2022-09-24T07:09:56;18.00;;;5.40;;
4278;SDS011;2153;47.744;10.580;2022-09-24T07:12:24;20.10;;;7.10;;
4278;SDS011;2153;47.744;10.580;2022-09-24T07:14:50;22.63;;;7.90;;
4278;SDS011;2153;47.744;10.580;2022-09-24T07:17:17;21.87;;;7.83;;
4278;SDS011;2153;47.744;10.580;2022-09-24T07:19:45;19.97;;;7.00;;
4278;SDS011;2153;47.744;10.580;2022-09-24T07:22:12;16.27;;;5.83;;
4278;SDS011;2153;47.744;10.580;2022-09-24T07:24:39;18.00;;;6.40;;
4278;SDS011;2153;47.744;10.580;2022-09-24T07:27:05;17.10;;;6.10;;
4278;SDS011;2153;47.744;10.580;2022-09-24T07:29:32;16.70;;;5.90;;
4278;SDS011;2153;47.744;10.580;2022-09-24T07:31:59;15.23;;;5.03;;
4278;SDS011;2153;47.744;10.580;2022-09-24T07:34:27;18.33;;;5.40;;
4278;SDS011;2153;47.744;10.580;2022-09-24T07:36:55;16.50;;;4.50;;
4278;SDS011;2153;47.744;10.580;2022-09-24T07:39:22;16.10;;;4.60;;
4278;SDS011;2153;47.744;10.580;2022-09-24T07:41:50;15.90;;;4.07;;
4278;SDS011;2153;47.744;10.580;2022-09-24T07:44:17;14.40;;;4.67;;
4278;SDS011;2153;47.744;10.580;2022-09-24T07:46:45;14.77;;;4.30;;
4278;SDS011;2153;47.744;10.580;2022-09-24T07:49:12;13.40;;;3.50;;
4278;SDS011;2153;47.744;10.580;2022-09-24T07:51:39;15.00;;;3.70;;
4278;SDS011;2153;47.744;10.580;2022-09-24T07:54:08;15.07;;;3.60;;
4278;SDS011;2153;47.744;10.580;2022-09-24T07:56:35;13.30;;;3.50;;
4278;SDS011;2153;47.744;10.580;2022-09-24T07:59:02;21.00;;;3.70;;
4278;SDS011;2153;47.744;10.580;2022-09-24T08:01:30;13.63;;;3.20;;
4278;SDS011;2153;47.744;10.580;2022-09-24T08:03:57;13.70;;;3.40;;
4278;SDS011;2153;47.744;10.580;2022-09-24T08:06:24;13.90;;;3.07;;
4278;SDS011;2153;47.744;10.580;2022-09-24T08:08:51;13.27;;;3.10;;
4278;SDS011;2153;47.744;10.580;2022-09-24T08:11:21;16.17;;;3.40;;
4278;SDS011;2153;47.744;10.580;2022-09-24T08:13:48;20.63;;;3.27;;
4278;SDS011;2153;47.744;10.580;2022-09-24T08:16:15;13.40;;;3.57;;
4278;SDS011;2153;47.744;10.580;2022-09-24T08:18:43;13.90;;;3.20;;
4278;SDS011;2153;47.744;10.580;2022-09-24T08:21:10;18.13;;;3.43;;
4278;SDS011;2153;47.744;10.580;2022-09-24T08:23:37;16.57;;;3.20;;
4278;SDS011;2153;47.744;10.580;2022-09-24T08:26:05;15.73;;;3.37;;
4278;SDS011;2153;47.744;10.580;2022-09-24T08:28:33;13.53;;;2.97;;
4278;SDS011;2153;47.744;10.580;2022-09-24T08:31:01;13.60;;;3.07;;
4278;SDS011;2153;47.744;10.580;2022-09-24T08:33:32;13.00;;;3.03;;
4278;SDS011;2153;47.744;10.580;2022-09-24T08:36:00;15.53;;;3.10;;
4278;SDS011;2153;47.744;10.580;2022-09-24T08:38:27;12.77;;;2.40;;
4278;SDS011;2153;47.744;10.580;2022-09-24T08:40:55;13.80;;;3.10;;
4278;SDS011;2153;47.744;10.580;2022-09-24T08:43:35;14.73;;;3.40;;
4278;SDS011;2153;47.744;10.580;2022-09-24T08:46:12;15.43;;;3.10;;
4278;SDS011;2153;47.744;10.580;2022-09-24T08:49:01;14.90;;;3.27;;
4278;SDS011;2153;47.744;10.580;2022-09-24T08:51:32;13.23;;;3.00;;
4278;SDS011;2153;47.744;10.580;2022-09-24T08:54:05;13.70;;;3.20;;
4278;SDS011;2153;47.744;10.580;2022-09-24T08:56:36;13.90;;;3.17;;
4278;SDS011;2153;47.744;10.580;2022-09-24T08:59:12;13.93;;;3.43;;
4278;SDS011;2153;47.744;10.580;2022-09-24T09:01:51;14.93;;;3.20;;
4278;SDS011;2153;47.744;10.580;2022-09-24T09:04:25;13.67;;;3.10;;
4278;SDS011;2153;47.744;10.580;2022-09-24T09:07:00;16.50;;;3.50;;
4278;SDS011;2153;47.744;10.580;2022-09-24T09:09:40;13.80;;;3.20;;
4278;SDS011;2153;47.744;10.580;2022-09-24T09:12:11;12.60;;;3.17;;
4278;SDS011;2153;47.744;10.580;2022-09-24T09:14:44;13.07;;;3.20;;
4278;SDS011;2153;47.744;10.580;2022-09-24T09:17:19;16.77;;;3.43;;
4278;SDS011;2153;47.744;10.580;2022-09-24T09:19:56;13.90;;;3.20;;
4278;SDS011;2153;47.744;10.580;2022-09-24T09:22:27;14.13;;;3.93;;
4278;SDS011;2153;47.744;10.580;2022-09-24T09:24:59;14.63;;;3.87;;
4278;SDS011;2153;47.744;10.580;2022-09-24T09:27:28;17.00;;;4.30;;
4278;SDS011;2153;47.744;10.580;2022-09-24T09:29:57;15.90;;;4.80;;
4278;SDS011;2153;47.744;10.580;2022-09-24T09:32:30;19.43;;;6.57;;
4278;SDS011;2153;47.744;10.580;2022-09-24T09:35:07;16.10;;;4.80;;
4278;SDS011;2153;47.744;10.580;2022-09-24T09:37:41;17.87;;;4.73;;
4278;SDS011;2153;47.744;10.580;2022-09-24T09:40:20;13.40;;;3.57;;
4278;SDS011;2153;47.744;10.580;2022-09-24T09:42:57;13.17;;;3.00;;
4278;SDS011;2153;47.744;10.580;2022-09-24T09:45:29;13.43;;;3.23;;
4278;SDS011;2153;47.744;10.580;2022-09-24T09:47:59;24.43;;;8.63;;
4278;SDS011;2153;47.744;10.580;2022-09-24T09:50:27;15.00;;;4.60;;
4278;SDS011;2153;47.744;10.580;2022-09-24T09:52:59;28.63;;;10.00;;
4278;SDS011;2153;47.744;10.580;2022-09-24T09:55:28;17.53;;;4.90;;
4278;SDS011;2153;47.744;10.580;2022-09-24T09:58:00;15.60;;;5.30;;
4278;SDS011;2153;47.744;10.580;2022-09-24T10:00:37;16.03;;;5.30;;
4278;SDS011;2153;47.744;10.580;2022-09-24T10:03:04;23.97;;;4.30;;
4278;SDS011;2153;47.744;10.580;2022-09-24T10:05:30;14.50;;;4.60;;
4278;SDS011;2153;47.744;10.580;2022-09-24T10:07:58;23.83;;;4.30;;
4278;SDS011;2153;47.744;10.580;2022-09-24T10:10:25;14.87;;;3.40;;
4278;SDS011;2153;47.744;10.580;2022-09-24T10:12:53;15.43;;;4.80;;
4278;SDS011;2153;47.744;10.580;2022-09-24T10:15:31;13.70;;;4.23;;
4278;SDS011;2153;47.744;10.580;2022-09-24T10:17:59;14.00;;;3.90;;
4278;SDS011;2153;47.744;10.580;2022-09-24T10:20:27;15.53;;;3.77;;
4278;SDS011;2153;47.744;10.580;2022-09-24T10:22:58;15.10;;;3.57;;
4278;SDS011;2153;47.744;10.580;2022-09-24T10:25:28;13.80;;;3.50;;
4278;SDS011;2153;47.744;10.580;2022-09-24T10:27:57;13.13;;;3.07;;
4278;SDS011;2153;47.744;10.580;2022-09-24T10:30:46;13.17;;;2.97;;
4278;SDS011;2153;47.744;10.580;2022-09-24T10:33:20;14.13;;;3.10;;
4278;SDS011;2153;47.744;10.580;2022-09-24T10:35:48;12.03;;;2.67;;
4278;SDS011;2153;47.744;10.580;2022-09-24T10:38:16;13.77;;;2.60;;
4278;SDS011;2153;47.744;10.580;2022-09-24T10:40:44;13.10;;;2.80;;
4278;SDS011;2153;47.744;10.580;2022-09-24T10:43:14;15.43;;;3.60;;
4278;SDS011;2153;47.744;10.580;2022-09-24T10:45:51;14.57;;;3.00;;
4278;SDS011;2153;47.744;10.580;2022-09-24T10:48:34;12.40;;;2.57;;
4278;SDS011;2153;47.744;10.580;2022-09-24T10:51:11;12.20;;;2.30;;
4278;SDS011;2153;47.744;10.580;2022-09-24T10:53:49;13.83;;;3.47;;
4278;SDS011;2153;47.744;10.580;2022-09-24T10:56:25;15.10;;;4.30;;
4278;SDS011;2153;47.744;10.580;2022-09-24T10:59:07;14.30;;;3.87;;
4278;SDS011;2153;47.744;10.580;2022-09-24T11:02:04;13.10;;;3.20;;
4278;SDS011;2153;47.744;10.580;2022-09-24T11:04:49;15.40;;;3.40;;
4278;SDS011;2153;47.744;10.580;2022-09-24T11:07:24;15.93;;;3.50;;
4278;SDS011;2153;47.744;10.580;2022-09-24T11:09:59;13.33;;;3.13;;
4278;SDS011;2153;47.744;10.580;2022-09-24T11:12:35;15.43;;;3.33;;
4278;SDS011;2153;47.744;10.580;2022-09-24T11:15:14;15.47;;;3.20;;
4278;SDS011;2153;47.744;10.580;2022-09-24T11:17:53;15.67;;;4.30;;
4278;SDS011;2153;47.744;10.580;2022-09-24T11:20:34;14.90;;;3.70;;
4278;SDS011;2153;47.744;10.580;2022-09-24T11:23:16;15.97;;;4.10;;
4278;SDS011;2153;47.744;10.580;2022-09-24T11:25:59;13.47;;;3.30;;
4278;SDS011;2153;47.744;10.580;2022-09-24T11:28:42;17.33;;;3.90;;
4278;SDS011;2153;47.744;10.580;2022-09-24T11:31:25;13.30;;;3.17;;
4278;SDS011;2153;47.744;10.580;2022-09-24T11:34:06;16.20;;;3.97;;
4278;SDS011;2153;47.744;10.580;2022-09-24T11:36:56;13.20;;;3.30;;
4278;SDS011;2153;47.744;10.580;2022-09-24T11:39:33;13.30;;;3.27;;
4278;SDS011;2153;47.744;10.580;2022-09-24T11:42:13;13.00;;;3.50;;
4278;SDS011;2153;47.744;10.580;2022-09-24T11:47:58;14.43;;;3.93;;
4278;SDS011;2153;47.744;10.580;2022-09-24T11:50:39;13.10;;;3.53;;
4278;SDS011;2153;47.744;10.580;2022-09-24T11:53:20;13.50;;;3.50;;
4278;SDS011;2153;47.744;10.580;2022-09-24T11:55:55;15.43;;;3.83;;
4278;SDS011;2153;47.744;10.580;2022-09-24T11:58:27;15.47;;;3.73;;
4278;SDS011;2153;47.744;10.580;2022-09-24T12:00:57;13.90;;;3.47;;
4278;SDS011;2153;47.744;10.580;2022-09-24T12:03:32;15.77;;;4.03;;
4278;SDS011;2153;47.744;10.580;2022-09-24T12:06:04;14.57;;;3.87;;
4278;SDS011;2153;47.744;10.580;2022-09-24T12:08:37;16.00;;;3.70;;
4278;SDS011;2153;47.744;10.580;2022-09-24T12:11:10;15.27;;;4.30;;
4278;SDS011;2153;47.744;10.580;2022-09-24T12:13:41;15.33;;;4.00;;
4278;SDS011;2153;47.744;10.580;2022-09-24T12:16:13;16.40;;;3.87;;
4278;SDS011;2153;47.744;10.580;2022-09-24T12:18:44;15.53;;;4.40;;
4278;SDS011;2153;47.744;10.580;2022-09-24T12:21:15;16.23;;;4.13;;
4278;SDS011;2153;47.744;10.580;2022-09-24T12:23:48;16.50;;;4.13;;
4278;SDS011;2153;47.744;10.580;2022-09-24T12:26:18;13.37;;;3.37;;
4278;SDS011;2153;47.744;10.580;2022-09-24T12:28:47;15.67;;;4.27;;
4278;SDS011;2153;47.744;10.580;2022-09-24T12:31:39;15.10;;;3.43;;
4278;SDS011;2153;47.744;10.580;2022-09-24T12:34:33;14.70;;;3.60;;
4278;SDS011;2153;47.744;10.580;2022-09-24T12:37:08;13.90;;;3.50;;
4278;SDS011;2153;47.744;10.580;2022-09-24T12:39:41;13.80;;;3.93;;
4278;SDS011;2153;47.744;10.580;2022-09-24T12:42:14;15.00;;;4.40;;
4278;SDS011;2153;47.744;10.580;2022-09-24T12:44:45;14.73;;;3.63;;
4278;SDS011;2153;47.744;10.580;2022-09-24T12:47:17;14.00;;;3.67;;
4278;SDS011;2153;47.744;10.580;2022-09-24T12:49:47;13.50;;;3.13;;
4278;SDS011;2153;47.744;10.580;2022-09-24T12:52:22;14.03;;;3.63;;
4278;SDS011;2153;47.744;10.580;2022-09-24T12:54:56;13.70;;;3.73;;
4278;SDS011;2153;47.744;10.580;2022-09-24T12:57:28;13.97;;;3.40;;
4278;SDS011;2153;47.744;10.580;2022-09-24T12:59:59;13.97;;;3.87;;
4278;SDS011;2153;47.744;10.580;2022-09-24T13:02:29;14.00;;;3.70;;
4278;SDS011;2153;47.744;10.580;2022-09-24T13:05:16;14.43;;;4.17;;
4278;SDS011;2153;47.744;10.580;2022-09-24T13:07:56;14.53;;;4.07;;
4278;SDS011;2153;47.744;10.580;2022-09-24T13:10:26;14.20;;;3.57;;
4278;SDS011;2153;47.744;10.580;2022-09-24T13:12:54;13.63;;;3.37;;
4278;SDS011;2153;47.744;10.580;2022-09-24T13:15:25;13.43;;;3.23;;
4278;SDS011;2153;47.744;10.580;2022-09-24T13:18:00;14.97;;;3.77;;
4278;SDS011;2153;47.744;10.580;2022-09-24T13:20:31;18.23;;;4.03;;
4278;SDS011;2153;47.744;10.580;2022-09-24T13:23:10;15.70;;;3.30;;
4278;SDS011;2153;47.744;10.580;2022-09-24T13:25:40;14.60;;;3.10;;
4278;SDS011;2153;47.744;10.580;2022-09-24T13:28:18;14.33;;;3.10;;
4278;SDS011;2153;47.744;10.580;2022-09-24T13:30:48;12.87;;;2.90;;
4278;SDS011;2153;47.744;10.580;2022-09-24T13:33:19;14.27;;;3.17;;
4278;SDS011;2153;47.744;10.580;2022-09-24T13:35:59;13.57;;;3.40;;
4278;SDS011;2153;47.744;10.580;2022-09-24T13:38:30;16.30;;;3.40;;
4278;SDS011;2153;47.744;10.580;2022-09-24T13:41:03;15.70;;;3.70;;
4278;SDS011;2153;47.744;10.580;2022-09-24T13:43:42;13.70;;;3.70;;
4278;SDS011;2153;47.744;10.580;2022-09-24T13:46:14;14.80;;;4.60;;
4278;SDS011;2153;47.744;10.580;2022-09-24T13:48:44;15.17;;;4.37;;
4278;SDS011;2153;47.744;10.580;2022-09-24T13:51:16;14.87;;;4.37;;
4278;SDS011;2153;47.744;10.580;2022-09-24T13:53:47;14.73;;;3.70;;
4278;SDS011;2153;47.744;10.580;2022-09-24T13:56:19;17.43;;;5.17;;
4278;SDS011;2153;47.744;10.580;2022-09-24T13:58:46;17.00;;;5.67;;
4278;SDS011;2153;47.744;10.580;2022-09-24T14:01:16;16.37;;;4.90;;
4278;SDS011;2153;47.744;10.580;2022-09-24T14:03:51;18.00;;;5.50;;
4278;SDS011;2153;47.744;10.580;2022-09-24T14:06:21;15.17;;;4.73;;
4278;SDS011;2153;47.744;10.580;2022-09-24T14:08:58;15.50;;;4.30;;
4278;SDS011;2153;47.744;10.580;2022-09-24T14:11:27;15.03;;;4.00;;
4278;SDS011;2153;47.744;10.580;2022-09-24T14:13:54;14.20;;;4.00;;
4278;SDS011;2153;47.744;10.580;2022-09-24T14:16:23;13.60;;;3.03;;
4278;SDS011;2153;47.744;10.580;2022-09-24T14:18:59;13.47;;;3.70;;
4278;SDS011;2153;47.744;10.580;2022-09-24T14:21:29;15.13;;;4.00;;
4278;SDS011;2153;47.744;10.580;2022-09-24T14:23:59;15.53;;;4.87;;
4278;SDS011;2153;47.744;10.580;2022-09-24T14:26:32;15.93;;;4.50;;
4278;SDS011;2153;47.744;10.580;2022-09-24T14:29:02;15.27;;;4.77;;
4278;SDS011;2153;47.744;10.580;2022-09-24T14:31:40;15.07;;;4.30;;
4278;SDS011;2153;47.744;10.580;2022-09-24T14:34:12;18.80;;;6.10;;
4278;SDS011;2153;47.744;10.580;2022-09-24T14:36:48;15.47;;;5.10;;
4278;SDS011;2153;47.744;10.580;2022-09-24T14:39:16;16.20;;;4.90;;
4278;SDS011;2153;47.744;10.580;2022-09-24T14:41:44;14.73;;;4.43;;
4278;SDS011;2153;47.744;10.580;2022-09-24T14:44:13;15.33;;;4.07;;
4278;SDS011;2153;47.744;10.580;2022-09-24T14:46:46;14.30;;;4.30;;
4278;SDS011;2153;47.744;10.580;2022-09-24T14:49:17;15.70;;;4.60;;
4278;SDS011;2153;47.744;10.580;2022-09-24T14:51:52;16.00;;;5.00;;
4278;SDS011;2153;47.744;10.580;2022-09-24T14:54:22;16.47;;;4.50;;
4278;SDS011;2153;47.744;10.580;2022-09-24T14:56:55;15.47;;;4.00;;
4278;SDS011;2153;47.744;10.580;2022-09-24T14:59:35;16.33;;;4.40;;
4278;SDS011;2153;47.744;10.580;2022-09-24T15:02:05;14.87;;;4.60;;
4278;SDS011;2153;47.744;10.580;2022-09-24T15:04:43;14.50;;;4.20;;
4278;SDS011;2153;47.744;10.580;2022-09-24T15:07:13;14.87;;;4.53;;
4278;SDS011;2153;47.744;10.580;2022-09-24T15:09:41;19.27;;;7.27;;
4278;SDS011;2153;47.744;10.580;2022-09-24T15:12:13;22.80;;;9.23;;
4278;SDS011;2153;47.744;10.580;2022-09-24T15:14:52;18.73;;;7.70;;